createdAt,value
2017-06-15T00:00:01.523Z,1010.65
2017-06-15T00:00:27.629Z,1010.63
2017-06-15T00:00:53.738Z,1010.63
2017-06-15T00:01:19.830Z,1010.63
2017-06-15T00:01:45.928Z,1010.62
2017-06-15T00:02:12.019Z,1010.61
2017-06-15T00:02:38.126Z,1010.63
2017-06-15T00:03:04.254Z,1010.63
2017-06-15T00:03:30.345Z,1010.6
2017-06-15T00:03:56.451Z,1010.61
2017-06-15T00:04:22.588Z,1010.57
2017-06-15T00:04:48.675Z,1010.59
2017-06-15T00:05:14.803Z,1010.58
2017-06-15T00:05:40.909Z,1010.57
2017-06-15T00:06:06.999Z,1010.54
2017-06-15T00:06:33.094Z,1010.56
2017-06-15T00:06:59.202Z,1010.57
2017-06-15T00:07:25.296Z,1010.53
2017-06-15T00:07:51.388Z,1010.54
2017-06-15T00:08:17.497Z,1010.55
2017-06-15T00:08:43.594Z,1010.52
2017-06-15T00:09:09.681Z,1010.51
2017-06-15T00:09:35.815Z,1010.5
2017-06-15T00:10:01.916Z,1010.49
2017-06-15T00:10:28.024Z,1010.5
2017-06-15T00:10:54.185Z,1010.51
2017-06-15T00:11:20.295Z,1010.52
2017-06-15T00:11:46.407Z,1010.51
2017-06-15T00:12:12.508Z,1010.48
2017-06-15T00:12:38.656Z,1010.47
2017-06-15T00:13:04.788Z,1010.52
2017-06-15T00:13:30.886Z,1010.51
2017-06-15T00:13:56.976Z,1010.5
2017-06-15T00:14:23.082Z,1010.46
2017-06-15T00:14:49.217Z,1010.49
2017-06-15T00:15:15.331Z,1010.44
2017-06-15T00:15:41.433Z,1010.46
2017-06-15T00:16:07.602Z,1010.45
2017-06-15T00:16:33.687Z,1010.43
2017-06-15T00:16:59.784Z,1010.43
2017-06-15T00:17:25.916Z,1010.42
2017-06-15T00:17:52.007Z,1010.45
2017-06-15T00:18:18.115Z,1010.41
2017-06-15T00:18:44.202Z,1010.43
2017-06-15T00:19:10.323Z,1010.46
2017-06-15T00:19:36.483Z,1010.42
2017-06-15T00:20:02.601Z,1010.39
2017-06-15T00:20:28.699Z,1010.4
2017-06-15T00:20:54.805Z,1010.42
2017-06-15T00:21:20.925Z,1010.43
2017-06-15T00:21:47.044Z,1010.43
2017-06-15T00:22:13.182Z,1010.44
2017-06-15T00:22:39.308Z,1010.5
2017-06-15T00:23:05.445Z,1010.43
2017-06-15T00:23:31.549Z,1010.42
2017-06-15T00:23:57.642Z,1010.39
2017-06-15T00:24:23.747Z,1010.42
2017-06-15T00:24:49.839Z,1010.4
2017-06-15T00:25:15.952Z,1010.42
2017-06-15T00:25:42.064Z,1010.4
2017-06-15T00:26:08.188Z,1010.39
2017-06-15T00:26:34.277Z,1010.37
2017-06-15T00:27:00.381Z,1010.38
2017-06-15T00:27:26.509Z,1010.37
2017-06-15T00:27:52.627Z,1010.34
2017-06-15T00:28:18.750Z,1010.34
2017-06-15T00:28:44.859Z,1010.37
2017-06-15T00:29:10.952Z,1010.36
2017-06-15T00:29:37.049Z,1010.38
2017-06-15T00:30:03.165Z,1010.38
2017-06-15T00:30:29.272Z,1010.35
2017-06-15T00:30:55.371Z,1010.34
2017-06-15T00:31:21.463Z,1010.34
2017-06-15T00:31:47.567Z,1010.33
2017-06-15T00:32:13.701Z,1010.34
2017-06-15T00:32:39.787Z,1010.35
2017-06-15T00:33:05.888Z,1010.33
2017-06-15T00:33:32.049Z,1010.31
2017-06-15T00:33:58.216Z,1010.35
2017-06-15T00:34:24.362Z,1010.34
2017-06-15T00:34:50.462Z,1010.3
2017-06-15T00:35:16.561Z,1010.32
2017-06-15T00:35:42.696Z,1010.29
2017-06-15T00:36:08.785Z,1010.29
2017-06-15T00:36:34.888Z,1010.32
2017-06-15T00:37:01.022Z,1010.25
2017-06-15T00:37:27.111Z,1010.29
2017-06-15T00:37:53.207Z,1010.31
2017-06-15T00:38:19.314Z,1010.28
2017-06-15T00:38:45.435Z,1010.24
2017-06-15T00:39:11.550Z,1010.28
2017-06-15T00:39:37.660Z,1010.29
2017-06-15T00:40:03.761Z,1010.32
2017-06-15T00:40:29.865Z,1010.25
2017-06-15T00:40:55.957Z,1010.27
2017-06-15T00:41:22.056Z,1010.3
2017-06-15T00:41:48.163Z,1010.28
2017-06-15T00:42:14.283Z,1010.27
2017-06-15T00:42:40.375Z,1010.28
2017-06-15T00:43:06.486Z,1010.28
2017-06-15T00:43:32.582Z,1010.25
2017-06-15T00:43:58.674Z,1010.25
2017-06-15T00:44:24.809Z,1010.28
2017-06-15T00:44:50.908Z,1010.24
2017-06-15T00:45:17.030Z,1010.26
2017-06-15T00:45:43.132Z,1010.24
2017-06-15T00:46:09.224Z,1010.22
2017-06-15T00:46:35.335Z,1010.21
2017-06-15T00:47:01.429Z,1010.26
2017-06-15T00:47:27.544Z,1010.21
2017-06-15T00:47:53.674Z,1010.17
2017-06-15T00:48:19.775Z,1010.2
2017-06-15T00:48:45.915Z,1010.25
2017-06-15T00:49:12.016Z,1010.23
2017-06-15T00:49:38.149Z,1010.23
2017-06-15T00:50:04.266Z,1010.19
2017-06-15T00:50:30.392Z,1010.22
2017-06-15T00:50:56.551Z,1010.22
2017-06-15T00:51:22.642Z,1010.21
2017-06-15T00:51:48.738Z,1010.21
2017-06-15T00:52:14.872Z,1010.23
2017-06-15T00:52:40.966Z,1010.22
2017-06-15T00:53:07.084Z,1010.17
2017-06-15T00:53:33.223Z,1010.21
2017-06-15T00:53:59.320Z,1010.23
2017-06-15T00:54:25.410Z,1010.21
2017-06-15T00:54:51.543Z,1010.2
2017-06-15T00:55:17.645Z,1010.22
2017-06-15T00:55:43.760Z,1010.22
2017-06-15T00:56:09.865Z,1010.2
2017-06-15T00:56:36.001Z,1010.2
2017-06-15T00:57:02.144Z,1010.23
2017-06-15T00:57:28.240Z,1010.2
2017-06-15T00:57:54.359Z,1010.21
2017-06-15T00:58:20.463Z,1010.19
2017-06-15T00:58:46.561Z,1010.21
2017-06-15T00:59:12.700Z,1010.18
2017-06-15T00:59:38.805Z,1010.17
2017-06-15T01:00:04.914Z,1010.16
2017-06-15T01:00:31.025Z,1010.19
2017-06-15T01:00:57.124Z,1010.17
2017-06-15T01:01:23.258Z,1010.19
2017-06-15T01:01:49.374Z,1010.15
2017-06-15T01:02:15.472Z,1010.16
2017-06-15T01:02:41.598Z,1010.2
2017-06-15T01:03:07.727Z,1010.19
2017-06-15T01:03:33.859Z,1010.2
2017-06-15T01:03:59.947Z,1010.21
2017-06-15T01:04:26.070Z,1010.23
2017-06-15T01:04:52.205Z,1010.22
2017-06-15T01:05:18.299Z,1010.22
2017-06-15T01:05:44.395Z,1010.21
2017-06-15T01:06:10.555Z,1010.22
2017-06-15T01:06:36.674Z,1010.19
2017-06-15T01:07:02.789Z,1010.23
2017-06-15T01:07:28.898Z,1010.18
2017-06-15T01:07:55.019Z,1010.19
2017-06-15T01:08:21.122Z,1010.19
2017-06-15T01:08:47.236Z,1010.19
2017-06-15T01:09:13.355Z,1010.16
2017-06-15T01:09:39.490Z,1010.21
2017-06-15T01:10:05.633Z,1010.17
2017-06-15T01:10:31.774Z,1010.17
2017-06-15T01:10:57.881Z,1010.17
2017-06-15T01:11:23.977Z,1010.19
2017-06-15T01:11:50.067Z,1010.16
2017-06-15T01:12:16.173Z,1010.12
2017-06-15T01:12:42.274Z,1010.14
2017-06-15T01:13:08.364Z,1010.14
2017-06-15T01:13:34.470Z,1010.14
2017-06-15T01:14:00.559Z,1010.18
2017-06-15T01:14:26.669Z,1010.13
2017-06-15T01:14:52.767Z,1010.14
2017-06-15T01:15:18.880Z,1010.14
2017-06-15T01:15:44.986Z,1010.11
2017-06-15T01:16:11.114Z,1010.16
2017-06-15T01:16:37.205Z,1010.15
2017-06-15T01:17:03.341Z,1010.14
2017-06-15T01:17:29.445Z,1010.17
2017-06-15T01:17:55.534Z,1010.11
2017-06-15T01:18:21.661Z,1010.13
2017-06-15T01:18:47.792Z,1010.14
2017-06-15T01:19:13.908Z,1010.13
2017-06-15T01:19:40.014Z,1010.11
2017-06-15T01:20:06.107Z,1010.11
2017-06-15T01:20:32.207Z,1010.08
2017-06-15T01:20:58.314Z,1010.11
2017-06-15T01:21:24.401Z,1010.09
2017-06-15T01:21:50.503Z,1010.08
2017-06-15T01:22:16.637Z,1010.1
2017-06-15T01:22:42.729Z,1010.08
2017-06-15T01:23:08.900Z,1010.06
2017-06-15T01:23:35.006Z,1010.06
2017-06-15T01:24:01.101Z,1010.05
2017-06-15T01:24:27.192Z,1010.07
2017-06-15T01:24:53.322Z,1010.03
2017-06-15T01:25:19.422Z,1010.03
2017-06-15T01:25:45.525Z,1010.04
2017-06-15T01:26:11.617Z,1010.02
2017-06-15T01:26:37.740Z,1009.99
2017-06-15T01:27:03.844Z,1010.02
2017-06-15T01:27:29.936Z,1009.99
2017-06-15T01:27:56.028Z,1010
2017-06-15T01:28:22.139Z,1010.01
2017-06-15T01:28:48.259Z,1010.02
2017-06-15T01:29:14.350Z,1009.98
2017-06-15T01:29:40.454Z,1010.03
2017-06-15T01:30:06.583Z,1010
2017-06-15T01:30:32.736Z,1009.99
2017-06-15T01:30:58.830Z,1010.02
2017-06-15T01:31:24.920Z,1009.99
2017-06-15T01:31:51.028Z,1009.98
2017-06-15T01:32:17.183Z,1009.98
2017-06-15T01:32:43.274Z,1009.97
2017-06-15T01:33:09.381Z,1009.97
2017-06-15T01:33:35.480Z,1009.96
2017-06-15T01:34:01.572Z,1009.95
2017-06-15T01:34:27.701Z,1009.92
2017-06-15T01:34:53.836Z,1009.92
2017-06-15T01:35:19.923Z,1009.91
2017-06-15T01:35:46.025Z,1009.92
2017-06-15T01:36:12.130Z,1009.88
2017-06-15T01:36:38.221Z,1009.87
2017-06-15T01:37:04.343Z,1009.88
2017-06-15T01:37:30.449Z,1009.9
2017-06-15T01:37:56.541Z,1009.87
2017-06-15T01:38:22.632Z,1009.88
2017-06-15T01:38:48.770Z,1009.9
2017-06-15T01:39:14.868Z,1009.91
2017-06-15T01:39:40.982Z,1009.89
2017-06-15T01:40:07.116Z,1009.89
2017-06-15T01:40:33.215Z,1009.87
2017-06-15T01:40:59.307Z,1009.86
2017-06-15T01:41:25.433Z,1009.89
2017-06-15T01:41:51.523Z,1009.86
2017-06-15T01:42:17.633Z,1009.87
2017-06-15T01:42:43.759Z,1009.83
2017-06-15T01:43:09.873Z,1009.85
2017-06-15T01:43:35.981Z,1009.86
2017-06-15T01:44:02.080Z,1009.87
2017-06-15T01:44:28.194Z,1009.82
2017-06-15T01:44:54.298Z,1009.81
2017-06-15T01:45:20.404Z,1009.86
2017-06-15T01:45:46.515Z,1009.87
2017-06-15T01:46:12.641Z,1009.82
2017-06-15T01:46:38.747Z,1009.84
2017-06-15T01:47:04.839Z,1009.81
2017-06-15T01:47:30.946Z,1009.84
2017-06-15T01:47:57.035Z,1009.8
2017-06-15T01:48:23.137Z,1009.82
2017-06-15T01:48:49.273Z,1009.79
2017-06-15T01:49:15.359Z,1009.78
2017-06-15T01:49:41.485Z,1009.83
2017-06-15T01:50:07.591Z,1009.8
2017-06-15T01:50:33.735Z,1009.79
2017-06-15T01:50:59.832Z,1009.78
2017-06-15T01:51:25.937Z,1009.76
2017-06-15T01:51:52.030Z,1009.76
2017-06-15T01:52:18.146Z,1009.72
2017-06-15T01:52:44.248Z,1009.75
2017-06-15T01:53:10.346Z,1009.78
2017-06-15T01:53:36.454Z,1009.76
2017-06-15T01:54:02.546Z,1009.76
2017-06-15T01:54:28.669Z,1009.72
2017-06-15T01:54:54.775Z,1009.78
2017-06-15T01:55:20.900Z,1009.73
2017-06-15T01:55:46.991Z,1009.74
2017-06-15T01:56:13.101Z,1009.75
2017-06-15T01:56:39.225Z,1009.77
2017-06-15T01:57:05.319Z,1009.73
2017-06-15T01:57:31.427Z,1009.75
2017-06-15T01:57:57.555Z,1009.77
2017-06-15T01:58:23.647Z,1009.73
2017-06-15T01:58:49.776Z,1009.73
2017-06-15T01:59:15.922Z,1009.71
2017-06-15T01:59:42.009Z,1009.75
2017-06-15T02:00:08.134Z,1009.75
2017-06-15T02:00:34.246Z,1009.68
2017-06-15T02:01:00.361Z,1009.7
2017-06-15T02:01:26.458Z,1009.7
2017-06-15T02:01:52.591Z,1009.71
2017-06-15T02:02:18.686Z,1009.71
2017-06-15T02:02:44.776Z,1009.64
2017-06-15T02:03:10.885Z,1009.67
2017-06-15T02:03:36.982Z,1009.64
2017-06-15T02:04:03.137Z,1009.64
2017-06-15T02:04:29.226Z,1009.64
2017-06-15T02:04:55.323Z,1009.66
2017-06-15T02:05:21.457Z,1009.63
2017-06-15T02:05:47.576Z,1009.62
2017-06-15T02:06:13.666Z,1009.68
2017-06-15T02:06:39.804Z,1009.64
2017-06-15T02:07:05.901Z,1009.67
2017-06-15T02:07:31.991Z,1009.65
2017-06-15T02:07:58.123Z,1009.67
2017-06-15T02:08:24.223Z,1009.63
2017-06-15T02:08:50.314Z,1009.66
2017-06-15T02:09:16.417Z,1009.62
2017-06-15T02:09:42.509Z,1009.61
2017-06-15T02:10:08.618Z,1009.6
2017-06-15T02:10:34.714Z,1009.62
2017-06-15T02:11:00.807Z,1009.6
2017-06-15T02:11:26.942Z,1009.61
2017-06-15T02:11:53.067Z,1009.62
2017-06-15T02:12:19.158Z,1009.59
2017-06-15T02:12:45.286Z,1009.59
2017-06-15T02:13:11.422Z,1009.59
2017-06-15T02:13:37.510Z,1009.56
2017-06-15T02:14:03.634Z,1009.58
2017-06-15T02:14:29.769Z,1009.59
2017-06-15T02:14:55.859Z,1009.57
2017-06-15T02:15:21.990Z,1009.58
2017-06-15T02:15:48.105Z,1009.54
2017-06-15T02:16:14.235Z,1009.57
2017-06-15T02:16:40.369Z,1009.6
2017-06-15T02:17:06.506Z,1009.59
2017-06-15T02:17:32.959Z,1009.57
2017-06-15T02:17:59.063Z,1009.56
2017-06-15T02:18:25.154Z,1009.56
2017-06-15T02:18:51.252Z,1009.6
2017-06-15T02:19:17.357Z,1009.59
2017-06-15T02:19:43.474Z,1009.58
2017-06-15T02:20:09.589Z,1009.57
2017-06-15T02:20:35.701Z,1009.54
2017-06-15T02:21:01.848Z,1009.56
2017-06-15T02:21:27.940Z,1009.56
2017-06-15T02:21:54.095Z,1009.55
2017-06-15T02:22:20.198Z,1009.59
2017-06-15T02:22:46.358Z,1009.56
2017-06-15T02:23:12.512Z,1009.57
2017-06-15T02:23:38.618Z,1009.56
2017-06-15T02:24:04.704Z,1009.55
2017-06-15T02:24:30.828Z,1009.54
2017-06-15T02:24:56.964Z,1009.55
2017-06-15T02:25:23.054Z,1009.52
2017-06-15T02:25:49.150Z,1009.55
2017-06-15T02:26:15.246Z,1009.54
2017-06-15T02:26:41.349Z,1009.56
2017-06-15T02:27:07.455Z,1009.57
2017-06-15T02:27:33.541Z,1009.56
2017-06-15T02:27:59.639Z,1009.57
2017-06-15T02:28:25.748Z,1009.55
2017-06-15T02:28:51.837Z,1009.55
2017-06-15T02:29:17.935Z,1009.51
2017-06-15T02:29:44.104Z,1009.5
2017-06-15T02:30:10.198Z,1009.55
2017-06-15T02:30:36.313Z,1009.57
2017-06-15T02:31:02.423Z,1009.57
2017-06-15T02:31:28.519Z,1009.55
2017-06-15T02:31:54.657Z,1009.51
2017-06-15T02:32:20.748Z,1009.52
2017-06-15T02:32:46.868Z,1009.49
2017-06-15T02:33:12.974Z,1009.47
2017-06-15T02:33:39.067Z,1009.48
2017-06-15T02:34:05.180Z,1009.51
2017-06-15T02:34:31.293Z,1009.51
2017-06-15T02:34:57.415Z,1009.48
2017-06-15T02:35:23.529Z,1009.49
2017-06-15T02:35:49.632Z,1009.46
2017-06-15T02:36:15.757Z,1009.51
2017-06-15T02:36:41.850Z,1009.48
2017-06-15T02:37:07.954Z,1009.5
2017-06-15T02:37:34.070Z,1009.49
2017-06-15T02:38:00.179Z,1009.5
2017-06-15T02:38:26.276Z,1009.47
2017-06-15T02:38:52.412Z,1009.49
2017-06-15T02:39:18.524Z,1009.5
2017-06-15T02:39:44.649Z,1009.5
2017-06-15T02:40:10.763Z,1009.49
2017-06-15T02:40:36.865Z,1009.51
2017-06-15T02:41:02.998Z,1009.49
2017-06-15T02:41:29.086Z,1009.49
2017-06-15T02:41:55.185Z,1009.51
2017-06-15T02:42:21.292Z,1009.47
2017-06-15T02:42:47.381Z,1009.45
2017-06-15T02:43:13.483Z,1009.45
2017-06-15T02:43:39.623Z,1009.46
2017-06-15T02:44:05.750Z,1009.5
2017-06-15T02:44:31.855Z,1009.46
2017-06-15T02:44:57.994Z,1009.45
2017-06-15T02:45:24.092Z,1009.48
2017-06-15T02:45:50.225Z,1009.42
2017-06-15T02:46:16.315Z,1009.44
2017-06-15T02:46:42.411Z,1009.43
2017-06-15T02:47:08.516Z,1009.44
2017-06-15T02:47:34.611Z,1009.43
2017-06-15T02:48:00.701Z,1009.43
2017-06-15T02:48:26.833Z,1009.44
2017-06-15T02:48:52.932Z,1009.43
2017-06-15T02:49:19.040Z,1009.43
2017-06-15T02:49:45.130Z,1009.46
2017-06-15T02:50:11.226Z,1009.43
2017-06-15T02:50:37.330Z,1009.49
2017-06-15T02:51:03.423Z,1009.44
2017-06-15T02:51:29.539Z,1009.47
2017-06-15T02:51:55.675Z,1009.47
2017-06-15T02:52:21.772Z,1009.49
2017-06-15T02:52:47.863Z,1009.49
2017-06-15T02:53:13.971Z,1009.49
2017-06-15T02:53:40.070Z,1009.51
2017-06-15T02:54:06.168Z,1009.48
2017-06-15T02:54:32.260Z,1009.46
2017-06-15T02:54:58.353Z,1009.48
2017-06-15T02:55:24.461Z,1009.5
2017-06-15T02:55:50.561Z,1009.51
2017-06-15T02:56:16.649Z,1009.48
2017-06-15T02:56:42.754Z,1009.51
2017-06-15T02:57:08.883Z,1009.51
2017-06-15T02:57:34.995Z,1009.48
2017-06-15T02:58:01.123Z,1009.48
2017-06-15T02:58:27.286Z,1009.46
2017-06-15T02:58:53.374Z,1009.46
2017-06-15T02:59:19.471Z,1009.48
2017-06-15T02:59:45.588Z,1009.48
2017-06-15T03:00:11.693Z,1009.48
2017-06-15T03:00:37.792Z,1009.49
2017-06-15T03:01:03.880Z,1009.47
2017-06-15T03:01:29.982Z,1009.45
2017-06-15T03:01:56.117Z,1009.44
2017-06-15T03:02:22.204Z,1009.45
2017-06-15T03:02:48.353Z,1009.46
2017-06-15T03:03:14.456Z,1009.45
2017-06-15T03:03:40.546Z,1009.42
2017-06-15T03:04:06.667Z,1009.46
2017-06-15T03:04:32.802Z,1009.44
2017-06-15T03:04:58.896Z,1009.47
2017-06-15T03:05:24.984Z,1009.43
2017-06-15T03:05:51.094Z,1009.44
2017-06-15T03:06:17.191Z,1009.43
2017-06-15T03:06:43.284Z,1009.48
2017-06-15T03:07:09.416Z,1009.47
2017-06-15T03:07:35.515Z,1009.46
2017-06-15T03:08:01.653Z,1009.46
2017-06-15T03:08:27.759Z,1009.5
2017-06-15T03:08:53.893Z,1009.46
2017-06-15T03:09:20.028Z,1009.45
2017-06-15T03:09:46.105Z,1009.43
2017-06-15T03:10:12.236Z,1009.48
2017-06-15T03:10:38.326Z,1009.46
2017-06-15T03:11:04.427Z,1009.48
2017-06-15T03:11:30.545Z,1009.45
2017-06-15T03:11:56.647Z,1009.44
2017-06-15T03:12:22.752Z,1009.49
2017-06-15T03:12:48.866Z,1009.47
2017-06-15T03:13:14.967Z,1009.47
2017-06-15T03:13:41.075Z,1009.48
2017-06-15T03:14:07.164Z,1009.47
2017-06-15T03:14:33.308Z,1009.49
2017-06-15T03:14:59.415Z,1009.46
2017-06-15T03:15:25.510Z,1009.53
2017-06-15T03:15:51.624Z,1009.49
2017-06-15T03:16:17.726Z,1009.5
2017-06-15T03:16:43.826Z,1009.44
2017-06-15T03:17:09.929Z,1009.49
2017-06-15T03:17:36.044Z,1009.47
2017-06-15T03:18:02.462Z,1009.48
2017-06-15T03:18:28.622Z,1009.48
2017-06-15T03:18:54.742Z,1009.46
2017-06-15T03:19:20.831Z,1009.45
2017-06-15T03:19:46.940Z,1009.47
2017-06-15T03:20:13.034Z,1009.47
2017-06-15T03:20:39.126Z,1009.48
2017-06-15T03:21:05.261Z,1009.45
2017-06-15T03:21:31.363Z,1009.44
2017-06-15T03:21:57.461Z,1009.44
2017-06-15T03:22:23.556Z,1009.47
2017-06-15T03:22:49.679Z,1009.46
2017-06-15T03:23:15.755Z,1009.42
2017-06-15T03:23:41.850Z,1009.46
2017-06-15T03:24:07.940Z,1009.47
2017-06-15T03:24:34.047Z,1009.46
2017-06-15T03:25:00.148Z,1009.45
2017-06-15T03:25:26.237Z,1009.5
2017-06-15T03:25:52.362Z,1009.46
2017-06-15T03:26:18.472Z,1009.45
2017-06-15T03:26:44.558Z,1009.48
2017-06-15T03:27:10.656Z,1009.43
2017-06-15T03:27:36.749Z,1009.42
2017-06-15T03:28:02.852Z,1009.47
2017-06-15T03:28:28.981Z,1009.44
2017-06-15T03:28:55.097Z,1009.43
2017-06-15T03:29:21.199Z,1009.44
2017-06-15T03:29:47.308Z,1009.47
2017-06-15T03:30:13.421Z,1009.44
2017-06-15T03:30:39.520Z,1009.46
2017-06-15T03:31:05.624Z,1009.44
2017-06-15T03:31:31.714Z,1009.46
2017-06-15T03:31:57.813Z,1009.45
2017-06-15T03:32:23.917Z,1009.45
2017-06-15T03:32:50.011Z,1009.47
2017-06-15T03:33:16.117Z,1009.44
2017-06-15T03:33:42.205Z,1009.46
2017-06-15T03:34:08.303Z,1009.42
2017-06-15T03:34:34.436Z,1009.45
2017-06-15T03:35:00.528Z,1009.45
2017-06-15T03:35:26.625Z,1009.45
2017-06-15T03:35:52.731Z,1009.47
2017-06-15T03:36:18.849Z,1009.43
2017-06-15T03:36:44.938Z,1009.44
2017-06-15T03:37:11.047Z,1009.45
2017-06-15T03:37:37.143Z,1009.41
2017-06-15T03:38:03.260Z,1009.47
2017-06-15T03:38:29.392Z,1009.43
2017-06-15T03:38:55.485Z,1009.45
2017-06-15T03:39:21.590Z,1009.46
2017-06-15T03:39:47.684Z,1009.46
2017-06-15T03:40:13.776Z,1009.44
2017-06-15T03:40:39.913Z,1009.47
2017-06-15T03:41:06.010Z,1009.47
2017-06-15T03:41:32.101Z,1009.49
2017-06-15T03:41:58.236Z,1009.5
2017-06-15T03:42:24.336Z,1009.52
2017-06-15T03:42:50.427Z,1009.5
2017-06-15T03:43:16.531Z,1009.52
2017-06-15T03:43:42.636Z,1009.48
2017-06-15T03:44:08.753Z,1009.53
2017-06-15T03:44:34.877Z,1009.53
2017-06-15T03:45:00.966Z,1009.53
2017-06-15T03:45:27.073Z,1009.52
2017-06-15T03:45:53.173Z,1009.51
2017-06-15T03:46:19.264Z,1009.51
2017-06-15T03:46:45.368Z,1009.54
2017-06-15T03:47:11.473Z,1009.53
2017-06-15T03:47:37.586Z,1009.54
2017-06-15T03:48:03.715Z,1009.54
2017-06-15T03:48:29.820Z,1009.52
2017-06-15T03:48:55.912Z,1009.55
2017-06-15T03:49:22.033Z,1009.5
2017-06-15T03:49:48.170Z,1009.49
2017-06-15T03:50:14.290Z,1009.52
2017-06-15T03:50:40.380Z,1009.53
2017-06-15T03:51:06.489Z,1009.51
2017-06-15T03:51:32.584Z,1009.53
2017-06-15T03:51:58.711Z,1009.5
2017-06-15T03:52:24.813Z,1009.52
2017-06-15T03:52:50.912Z,1009.52
2017-06-15T03:53:17.051Z,1009.51
2017-06-15T03:53:43.155Z,1009.52
2017-06-15T03:54:09.263Z,1009.54
2017-06-15T03:54:35.350Z,1009.49
2017-06-15T03:55:01.448Z,1009.51
2017-06-15T03:55:27.596Z,1009.53
2017-06-15T03:55:53.703Z,1009.53
2017-06-15T03:56:19.803Z,1009.51
2017-06-15T03:56:45.894Z,1009.48
2017-06-15T03:57:11.997Z,1009.49
2017-06-15T03:57:38.106Z,1009.48
2017-06-15T03:58:04.193Z,1009.53
2017-06-15T03:58:30.298Z,1009.5
2017-06-15T03:58:56.403Z,1009.46
2017-06-15T03:59:22.517Z,1009.47
2017-06-15T03:59:48.663Z,1009.48
2017-06-15T04:00:14.851Z,1009.46
2017-06-15T04:00:40.971Z,1009.48
2017-06-15T04:01:07.077Z,1009.46
2017-06-15T04:01:33.167Z,1009.48
2017-06-15T04:01:59.293Z,1009.46
2017-06-15T04:02:25.400Z,1009.49
2017-06-15T04:02:51.515Z,1009.48
2017-06-15T04:03:17.616Z,1009.53
2017-06-15T04:03:43.719Z,1009.51
2017-06-15T04:04:09.840Z,1009.51
2017-06-15T04:04:35.930Z,1009.49
2017-06-15T04:05:02.091Z,1009.47
2017-06-15T04:05:28.187Z,1009.51
2017-06-15T04:05:54.278Z,1009.52
2017-06-15T04:06:20.384Z,1009.51
2017-06-15T04:06:46.478Z,1009.48
2017-06-15T04:07:12.611Z,1009.51
2017-06-15T04:07:38.705Z,1009.54
2017-06-15T04:08:04.820Z,1009.5
2017-06-15T04:08:30.931Z,1009.52
2017-06-15T04:08:57.028Z,1009.53
2017-06-15T04:09:23.117Z,1009.54
2017-06-15T04:09:49.223Z,1009.53
2017-06-15T04:10:15.323Z,1009.5
2017-06-15T04:10:41.415Z,1009.48
2017-06-15T04:11:07.543Z,1009.46
2017-06-15T04:11:33.650Z,1009.51
2017-06-15T04:11:59.741Z,1009.52
2017-06-15T04:12:25.838Z,1009.51
2017-06-15T04:12:51.954Z,1009.51
2017-06-15T04:13:18.059Z,1009.49
2017-06-15T04:13:44.160Z,1009.5
2017-06-15T04:14:10.249Z,1009.48
2017-06-15T04:14:36.350Z,1009.5
2017-06-15T04:15:02.486Z,1009.48
2017-06-15T04:15:28.574Z,1009.51
2017-06-15T04:15:54.674Z,1009.49
2017-06-15T04:16:20.837Z,1009.46
2017-06-15T04:16:46.926Z,1009.47
2017-06-15T04:17:13.023Z,1009.47
2017-06-15T04:17:39.147Z,1009.46
2017-06-15T04:18:05.249Z,1009.45
2017-06-15T04:18:31.410Z,1009.45
2017-06-15T04:18:57.523Z,1009.46
2017-06-15T04:19:23.644Z,1009.47
2017-06-15T04:19:49.752Z,1009.44
2017-06-15T04:20:15.845Z,1009.42
2017-06-15T04:20:41.941Z,1009.48
2017-06-15T04:21:08.047Z,1009.47
2017-06-15T04:21:34.142Z,1009.42
2017-06-15T04:22:00.232Z,1009.47
2017-06-15T04:22:26.341Z,1009.51
2017-06-15T04:22:52.437Z,1009.46
2017-06-15T04:23:18.539Z,1009.47
2017-06-15T04:23:44.656Z,1009.44
2017-06-15T04:24:10.778Z,1009.4
2017-06-15T04:24:36.882Z,1009.41
2017-06-15T04:25:02.979Z,1009.42
2017-06-15T04:25:29.092Z,1009.35
2017-06-15T04:25:55.201Z,1009.38
2017-06-15T04:26:21.297Z,1009.39
2017-06-15T04:26:47.386Z,1009.38
2017-06-15T04:27:13.493Z,1009.37
2017-06-15T04:27:39.621Z,1009.39
2017-06-15T04:28:05.737Z,1009.36
2017-06-15T04:28:31.850Z,1009.39
2017-06-15T04:28:57.966Z,1009.39
2017-06-15T04:29:24.075Z,1009.42
2017-06-15T04:29:50.187Z,1009.44
2017-06-15T04:30:16.280Z,1009.38
2017-06-15T04:30:42.439Z,1009.38
2017-06-15T04:31:08.539Z,1009.37
2017-06-15T04:31:34.655Z,1009.37
2017-06-15T04:32:00.781Z,1009.35
2017-06-15T04:32:26.889Z,1009.37
2017-06-15T04:32:52.975Z,1009.36
2017-06-15T04:33:19.098Z,1009.37
2017-06-15T04:33:45.204Z,1009.4
2017-06-15T04:34:11.296Z,1009.35
2017-06-15T04:34:37.393Z,1009.36
2017-06-15T04:35:03.526Z,1009.38
2017-06-15T04:35:29.619Z,1009.36
2017-06-15T04:35:55.735Z,1009.38
2017-06-15T04:36:21.875Z,1009.38
2017-06-15T04:36:48.028Z,1009.36
2017-06-15T04:37:14.118Z,1009.34
2017-06-15T04:37:40.222Z,1009.39
2017-06-15T04:38:06.352Z,1009.42
2017-06-15T04:38:32.444Z,1009.41
2017-06-15T04:38:58.546Z,1009.45
2017-06-15T04:39:24.653Z,1009.46
2017-06-15T04:39:50.748Z,1009.46
2017-06-15T04:40:16.844Z,1009.48
2017-06-15T04:40:42.935Z,1009.5
2017-06-15T04:41:09.069Z,1009.47
2017-06-15T04:41:35.167Z,1009.43
2017-06-15T04:42:01.258Z,1009.48
2017-06-15T04:42:27.364Z,1009.43
2017-06-15T04:42:53.470Z,1009.43
2017-06-15T04:43:19.581Z,1009.47
2017-06-15T04:43:45.681Z,1009.45
2017-06-15T04:44:11.816Z,1009.49
2017-06-15T04:44:37.907Z,1009.48
2017-06-15T04:45:04.031Z,1009.46
2017-06-15T04:45:30.128Z,1009.48
2017-06-15T04:45:56.260Z,1009.5
2017-06-15T04:46:22.395Z,1009.42
2017-06-15T04:46:48.457Z,1009.4
2017-06-15T04:47:14.566Z,1009.43
2017-06-15T04:47:40.702Z,1009.46
2017-06-15T04:48:06.819Z,1009.47
2017-06-15T04:48:32.916Z,1009.47
2017-06-15T04:48:59.024Z,1009.45
2017-06-15T04:49:25.122Z,1009.47
2017-06-15T04:49:51.212Z,1009.43
2017-06-15T04:50:17.324Z,1009.45
2017-06-15T04:50:43.421Z,1009.46
2017-06-15T04:51:09.523Z,1009.45
2017-06-15T04:51:35.614Z,1009.44
2017-06-15T04:52:01.736Z,1009.46
2017-06-15T04:52:27.873Z,1009.5
2017-06-15T04:52:53.967Z,1009.47
2017-06-15T04:53:20.061Z,1009.47
2017-06-15T04:53:46.172Z,1009.47
2017-06-15T04:54:12.270Z,1009.49
2017-06-15T04:54:38.359Z,1009.44
2017-06-15T04:55:04.467Z,1009.48
2017-06-15T04:55:30.570Z,1009.44
2017-06-15T04:55:56.662Z,1009.45
2017-06-15T04:56:22.767Z,1009.47
2017-06-15T04:56:48.884Z,1009.49
2017-06-15T04:57:14.996Z,1009.53
2017-06-15T04:57:41.095Z,1009.49
2017-06-15T04:58:07.187Z,1009.47
2017-06-15T04:58:33.323Z,1009.44
2017-06-15T04:58:59.425Z,1009.41
2017-06-15T04:59:25.519Z,1009.38
2017-06-15T04:59:51.625Z,1009.41
2017-06-15T05:00:17.733Z,1009.4
2017-06-15T05:00:43.846Z,1009.42
2017-06-15T05:01:09.947Z,1009.42
2017-06-15T05:01:36.056Z,1009.46
2017-06-15T05:02:02.150Z,1009.49
2017-06-15T05:02:28.253Z,1009.45
2017-06-15T05:02:54.346Z,1009.42
2017-06-15T05:03:20.451Z,1009.44
2017-06-15T05:03:46.559Z,1009.42
2017-06-15T05:04:12.673Z,1009.41
2017-06-15T05:04:38.776Z,1009.4
2017-06-15T05:05:04.885Z,1009.44
2017-06-15T05:05:30.977Z,1009.44
2017-06-15T05:05:57.077Z,1009.43
2017-06-15T05:06:23.184Z,1009.43
2017-06-15T05:06:49.279Z,1009.4
2017-06-15T05:07:15.374Z,1009.42
2017-06-15T05:07:41.506Z,1009.43
2017-06-15T05:08:07.608Z,1009.42
2017-06-15T05:08:33.744Z,1009.44
2017-06-15T05:08:59.939Z,1009.39
2017-06-15T05:09:26.063Z,1009.43
2017-06-15T05:09:52.170Z,1009.43
2017-06-15T05:10:18.266Z,1009.46
2017-06-15T05:10:44.359Z,1009.45
2017-06-15T05:11:10.499Z,1009.47
2017-06-15T05:11:36.597Z,1009.44
2017-06-15T05:12:02.691Z,1009.43
2017-06-15T05:12:28.821Z,1009.45
2017-06-15T05:12:54.951Z,1009.43
2017-06-15T05:13:21.057Z,1009.44
2017-06-15T05:13:47.152Z,1009.41
2017-06-15T05:14:13.244Z,1009.43
2017-06-15T05:14:39.355Z,1009.42
2017-06-15T05:15:05.483Z,1009.42
2017-06-15T05:15:31.575Z,1009.39
2017-06-15T05:15:57.683Z,1009.36
2017-06-15T05:16:23.786Z,1009.4